sensor_id;sensor_type;location;lat;lon;timestamp;P1;durP1;ratioP1;P2;durP2;ratioP2
15764;SDS011;7983;50.744;7.086;2022-08-02T00:02:01;2.10;;;1.40;;
15764;SDS011;7983;50.744;7.086;2022-08-02T00:04:28;2.13;;;1.38;;
15764;SDS011;7983;50.744;7.086;2022-08-02T00:06:59;1.27;;;1.10;;
15764;SDS011;7983;50.744;7.086;2022-08-02T00:09:30;2.10;;;1.30;;
15764;SDS011;7983;50.744;7.086;2022-08-02T00:11:58;2.97;;;1.60;;
15764;SDS011;7983;50.744;7.086;2022-08-02T00:14:25;3.47;;;1.45;;
15764;SDS011;7983;50.744;7.086;2022-08-02T00:16:51;2.22;;;1.40;;
15764;SDS011;7983;50.744;7.086;2022-08-02T00:19:19;2.63;;;1.60;;
15764;SDS011;7983;50.744;7.086;2022-08-02T00:21:45;1.80;;;1.50;;
15764;SDS011;7983;50.744;7.086;2022-08-02T00:24:13;1.80;;;1.30;;
15764;SDS011;7983;50.744;7.086;2022-08-02T00:26:38;1.42;;;1.30;;
15764;SDS011;7983;50.744;7.086;2022-08-02T00:29:07;2.05;;;1.48;;
15764;SDS011;7983;50.744;7.086;2022-08-02T00:31:35;2.10;;;1.60;;
15764;SDS011;7983;50.744;7.086;2022-08-02T00:34:03;2.28;;;1.60;;
15764;SDS011;7983;50.744;7.086;2022-08-02T00:36:31;2.45;;;1.30;;
15764;SDS011;7983;50.744;7.086;2022-08-02T00:38:57;1.70;;;1.50;;
15764;SDS011;7983;50.744;7.086;2022-08-02T00:41:25;1.75;;;1.35;;
15764;SDS011;7983;50.744;7.086;2022-08-02T00:43:51;3.03;;;1.63;;
15764;SDS011;7983;50.744;7.086;2022-08-02T00:46:17;2.85;;;1.70;;
15764;SDS011;7983;50.744;7.086;2022-08-02T00:48:46;2.15;;;1.55;;
15764;SDS011;7983;50.744;7.086;2022-08-02T00:51:19;1.88;;;1.60;;
15764;SDS011;7983;50.744;7.086;2022-08-02T00:53:45;2.35;;;1.45;;
15764;SDS011;7983;50.744;7.086;2022-08-02T00:56:16;2.17;;;1.40;;
15764;SDS011;7983;50.744;7.086;2022-08-02T00:58:43;1.98;;;1.38;;
15764;SDS011;7983;50.744;7.086;2022-08-02T01:01:09;2.08;;;1.42;;
15764;SDS011;7983;50.744;7.086;2022-08-02T01:03:37;1.60;;;1.50;;
15764;SDS011;7983;50.744;7.086;2022-08-02T01:06:09;2.05;;;1.42;;
15764;SDS011;7983;50.744;7.086;2022-08-02T01:08:37;1.90;;;1.40;;
15764;SDS011;7983;50.744;7.086;2022-08-02T01:11:05;1.80;;;1.60;;
15764;SDS011;7983;50.744;7.086;2022-08-02T01:13:32;2.55;;;1.50;;
15764;SDS011;7983;50.744;7.086;2022-08-02T01:16:01;1.80;;;1.30;;
15764;SDS011;7983;50.744;7.086;2022-08-02T01:18:39;1.92;;;1.38;;
15764;SDS011;7983;50.744;7.086;2022-08-02T01:21:22;2.55;;;1.60;;
15764;SDS011;7983;50.744;7.086;2022-08-02T01:30:02;1.60;;;1.50;;
15764;SDS011;7983;50.744;7.086;2022-08-02T01:32:30;2.00;;;1.80;;
15764;SDS011;7983;50.744;7.086;2022-08-02T01:35:02;2.38;;;1.48;;
15764;SDS011;7983;50.744;7.086;2022-08-02T01:37:34;2.53;;;1.55;;
15764;SDS011;7983;50.744;7.086;2022-08-02T01:40:11;2.00;;;1.40;;
15764;SDS011;7983;50.744;7.086;2022-08-02T01:42:42;1.75;;;1.33;;
15764;SDS011;7983;50.744;7.086;2022-08-02T01:45:12;1.60;;;1.20;;
15764;SDS011;7983;50.744;7.086;2022-08-02T01:47:42;1.80;;;1.38;;
15764;SDS011;7983;50.744;7.086;2022-08-02T01:50:13;3.10;;;1.42;;
15764;SDS011;7983;50.744;7.086;2022-08-02T01:52:46;2.85;;;1.42;;
15764;SDS011;7983;50.744;7.086;2022-08-02T01:55:17;2.08;;;1.58;;
15764;SDS011;7983;50.744;7.086;2022-08-02T01:57:53;2.15;;;1.30;;
15764;SDS011;7983;50.744;7.086;2022-08-02T02:00:25;2.40;;;1.50;;
15764;SDS011;7983;50.744;7.086;2022-08-02T02:02:54;3.63;;;1.60;;
15764;SDS011;7983;50.744;7.086;2022-08-02T02:05:23;1.90;;;1.50;;
15764;SDS011;7983;50.744;7.086;2022-08-02T02:07:52;1.85;;;1.23;;
15764;SDS011;7983;50.744;7.086;2022-08-02T02:10:24;2.38;;;1.70;;
15764;SDS011;7983;50.744;7.086;2022-08-02T02:12:57;1.85;;;1.45;;
15764;SDS011;7983;50.744;7.086;2022-08-02T02:15:26;1.90;;;1.70;;
15764;SDS011;7983;50.744;7.086;2022-08-02T02:17:57;2.47;;;1.60;;
15764;SDS011;7983;50.744;7.086;2022-08-02T02:20:24;2.05;;;1.52;;
15764;SDS011;7983;50.744;7.086;2022-08-02T02:22:53;2.17;;;1.40;;
15764;SDS011;7983;50.744;7.086;2022-08-02T02:25:19;2.03;;;1.52;;
15764;SDS011;7983;50.744;7.086;2022-08-02T02:30:33;2.00;;;1.52;;
15764;SDS011;7983;50.744;7.086;2022-08-02T02:33:03;1.77;;;1.40;;
15764;SDS011;7983;50.744;7.086;2022-08-02T02:35:33;2.17;;;1.42;;
15764;SDS011;7983;50.744;7.086;2022-08-02T02:38:01;2.08;;;1.40;;
15764;SDS011;7983;50.744;7.086;2022-08-02T02:40:30;2.38;;;1.50;;
15764;SDS011;7983;50.744;7.086;2022-08-02T02:42:59;2.25;;;1.60;;
15764;SDS011;7983;50.744;7.086;2022-08-02T02:45:28;3.20;;;1.40;;
15764;SDS011;7983;50.744;7.086;2022-08-02T02:47:54;1.52;;;1.40;;
15764;SDS011;7983;50.744;7.086;2022-08-02T02:50:21;2.20;;;1.58;;
15764;SDS011;7983;50.744;7.086;2022-08-02T02:52:47;1.67;;;1.50;;
15764;SDS011;7983;50.744;7.086;2022-08-02T02:55:14;2.13;;;1.85;;
15764;SDS011;7983;50.744;7.086;2022-08-02T02:57:43;2.00;;;1.50;;
15764;SDS011;7983;50.744;7.086;2022-08-02T03:00:11;2.15;;;1.40;;
15764;SDS011;7983;50.744;7.086;2022-08-02T03:02:38;2.83;;;1.52;;
15764;SDS011;7983;50.744;7.086;2022-08-02T03:05:10;2.10;;;1.40;;
15764;SDS011;7983;50.744;7.086;2022-08-02T03:07:37;1.70;;;1.55;;
15764;SDS011;7983;50.744;7.086;2022-08-02T03:10:06;2.00;;;1.63;;
15764;SDS011;7983;50.744;7.086;2022-08-02T03:12:33;2.08;;;1.17;;
15764;SDS011;7983;50.744;7.086;2022-08-02T03:15:01;1.77;;;1.38;;
15764;SDS011;7983;50.744;7.086;2022-08-02T03:17:43;1.30;;;1.20;;
15764;SDS011;7983;50.744;7.086;2022-08-02T03:20:13;1.88;;;1.40;;
15764;SDS011;7983;50.744;7.086;2022-08-02T03:22:40;2.13;;;1.50;;
15764;SDS011;7983;50.744;7.086;2022-08-02T03:25:07;2.55;;;1.63;;
15764;SDS011;7983;50.744;7.086;2022-08-02T03:27:33;1.85;;;1.40;;
15764;SDS011;7983;50.744;7.086;2022-08-02T03:29:59;2.60;;;1.55;;
15764;SDS011;7983;50.744;7.086;2022-08-02T03:32:25;1.75;;;1.27;;
15764;SDS011;7983;50.744;7.086;2022-08-02T03:34:51;2.67;;;1.42;;
15764;SDS011;7983;50.744;7.086;2022-08-02T03:37:19;1.60;;;1.50;;
15764;SDS011;7983;50.744;7.086;2022-08-02T03:39:46;2.42;;;1.40;;
15764;SDS011;7983;50.744;7.086;2022-08-02T03:42:13;2.65;;;2.00;;
15764;SDS011;7983;50.744;7.086;2022-08-02T03:44:42;2.53;;;2.08;;
15764;SDS011;7983;50.744;7.086;2022-08-02T03:47:07;2.72;;;2.30;;
15764;SDS011;7983;50.744;7.086;2022-08-02T03:49:34;3.25;;;2.30;;
15764;SDS011;7983;50.744;7.086;2022-08-02T03:52:01;1.83;;;1.73;;
15764;SDS011;7983;50.744;7.086;2022-08-02T03:54:28;2.60;;;2.38;;
15764;SDS011;7983;50.744;7.086;2022-08-02T03:56:53;2.72;;;2.20;;
15764;SDS011;7983;50.744;7.086;2022-08-02T03:59:19;2.33;;;2.10;;
15764;SDS011;7983;50.744;7.086;2022-08-02T04:01:45;4.65;;;2.50;;
15764;SDS011;7983;50.744;7.086;2022-08-02T04:04:13;3.15;;;2.05;;
15764;SDS011;7983;50.744;7.086;2022-08-02T04:06:38;3.28;;;2.60;;
15764;SDS011;7983;50.744;7.086;2022-08-02T04:09:09;2.88;;;2.42;;
15764;SDS011;7983;50.744;7.086;2022-08-02T04:11:34;5.53;;;3.38;;
15764;SDS011;7983;50.744;7.086;2022-08-02T04:14:04;3.70;;;2.78;;
15764;SDS011;7983;50.744;7.086;2022-08-02T04:16:37;4.38;;;2.67;;
15764;SDS011;7983;50.744;7.086;2022-08-02T04:21:55;2.35;;;2.05;;
15764;SDS011;7983;50.744;7.086;2022-08-02T04:24:27;2.15;;;1.92;;
15764;SDS011;7983;50.744;7.086;2022-08-02T04:27:00;3.40;;;2.00;;
15764;SDS011;7983;50.744;7.086;2022-08-02T04:29:27;3.03;;;1.98;;
15764;SDS011;7983;50.744;7.086;2022-08-02T04:31:57;4.07;;;1.83;;
15764;SDS011;7983;50.744;7.086;2022-08-02T04:34:23;2.25;;;1.70;;
15764;SDS011;7983;50.744;7.086;2022-08-02T04:36:51;2.58;;;2.20;;
15764;SDS011;7983;50.744;7.086;2022-08-02T04:39:20;3.65;;;3.00;;
15764;SDS011;7983;50.744;7.086;2022-08-02T04:41:46;3.53;;;2.67;;
15764;SDS011;7983;50.744;7.086;2022-08-02T04:44:12;2.85;;;2.47;;
15764;SDS011;7983;50.744;7.086;2022-08-02T04:46:38;2.55;;;1.98;;
15764;SDS011;7983;50.744;7.086;2022-08-02T04:49:05;3.17;;;2.13;;
15764;SDS011;7983;50.744;7.086;2022-08-02T04:51:34;3.03;;;2.03;;
15764;SDS011;7983;50.744;7.086;2022-08-02T04:54:01;2.03;;;1.70;;
15764;SDS011;7983;50.744;7.086;2022-08-02T04:56:31;2.70;;;1.92;;
15764;SDS011;7983;50.744;7.086;2022-08-02T04:58:56;2.67;;;1.77;;
15764;SDS011;7983;50.744;7.086;2022-08-02T05:01:22;1.80;;;1.70;;
15764;SDS011;7983;50.744;7.086;2022-08-02T05:03:50;2.50;;;1.73;;
15764;SDS011;7983;50.744;7.086;2022-08-02T05:06:16;2.45;;;1.83;;
15764;SDS011;7983;50.744;7.086;2022-08-02T05:08:43;2.35;;;1.90;;
15764;SDS011;7983;50.744;7.086;2022-08-02T05:11:16;2.17;;;1.80;;
15764;SDS011;7983;50.744;7.086;2022-08-02T05:13:44;2.53;;;1.83;;
15764;SDS011;7983;50.744;7.086;2022-08-02T05:16:10;2.13;;;1.77;;
15764;SDS011;7983;50.744;7.086;2022-08-02T05:18:35;2.20;;;2.00;;
15764;SDS011;7983;50.744;7.086;2022-08-02T05:21:01;4.63;;;2.10;;
15764;SDS011;7983;50.744;7.086;2022-08-02T05:23:29;3.92;;;2.40;;
15764;SDS011;7983;50.744;7.086;2022-08-02T05:25:57;2.67;;;1.95;;
15764;SDS011;7983;50.744;7.086;2022-08-02T05:28:25;3.53;;;2.45;;
15764;SDS011;7983;50.744;7.086;2022-08-02T05:30:51;3.65;;;2.35;;
15764;SDS011;7983;50.744;7.086;2022-08-02T05:33:16;2.90;;;2.40;;
15764;SDS011;7983;50.744;7.086;2022-08-02T05:35:44;2.92;;;2.10;;
15764;SDS011;7983;50.744;7.086;2022-08-02T05:38:12;2.78;;;2.10;;
15764;SDS011;7983;50.744;7.086;2022-08-02T05:40:40;2.72;;;2.00;;
15764;SDS011;7983;50.744;7.086;2022-08-02T05:43:11;3.47;;;2.20;;
15764;SDS011;7983;50.744;7.086;2022-08-02T05:45:38;2.80;;;2.10;;
15764;SDS011;7983;50.744;7.086;2022-08-02T05:48:05;4.22;;;2.40;;
15764;SDS011;7983;50.744;7.086;2022-08-02T05:50:33;3.72;;;2.30;;
15764;SDS011;7983;50.744;7.086;2022-08-02T05:53:04;2.38;;;2.13;;
15764;SDS011;7983;50.744;7.086;2022-08-02T05:55:56;3.97;;;2.25;;
15764;SDS011;7983;50.744;7.086;2022-08-02T06:01:27;2.25;;;2.00;;
15764;SDS011;7983;50.744;7.086;2022-08-02T06:04:04;4.10;;;2.30;;
15764;SDS011;7983;50.744;7.086;2022-08-02T06:06:35;3.55;;;2.22;;
15764;SDS011;7983;50.744;7.086;2022-08-02T06:09:09;2.35;;;2.15;;
15764;SDS011;7983;50.744;7.086;2022-08-02T06:11:42;2.88;;;1.95;;
15764;SDS011;7983;50.744;7.086;2022-08-02T06:14:14;2.40;;;1.95;;
15764;SDS011;7983;50.744;7.086;2022-08-02T06:16:40;2.30;;;1.92;;
15764;SDS011;7983;50.744;7.086;2022-08-02T06:19:10;3.45;;;2.03;;
15764;SDS011;7983;50.744;7.086;2022-08-02T06:21:38;3.58;;;1.90;;
15764;SDS011;7983;50.744;7.086;2022-08-02T06:24:10;8.35;;;2.30;;
15764;SDS011;7983;50.744;7.086;2022-08-02T06:26:37;2.40;;;2.08;;
15764;SDS011;7983;50.744;7.086;2022-08-02T06:29:07;3.10;;;2.08;;
15764;SDS011;7983;50.744;7.086;2022-08-02T06:31:33;3.55;;;2.13;;
15764;SDS011;7983;50.744;7.086;2022-08-02T06:34:02;6.78;;;2.03;;
15764;SDS011;7983;50.744;7.086;2022-08-02T06:36:48;3.13;;;2.10;;
15764;SDS011;7983;50.744;7.086;2022-08-02T06:42:24;4.85;;;1.92;;
15764;SDS011;7983;50.744;7.086;2022-08-02T06:44:57;2.83;;;2.05;;
15764;SDS011;7983;50.744;7.086;2022-08-02T06:47:23;2.10;;;1.70;;
15764;SDS011;7983;50.744;7.086;2022-08-02T06:49:49;2.50;;;1.70;;
15764;SDS011;7983;50.744;7.086;2022-08-02T06:52:17;3.05;;;2.05;;
15764;SDS011;7983;50.744;7.086;2022-08-02T06:54:43;3.20;;;1.85;;
15764;SDS011;7983;50.744;7.086;2022-08-02T06:57:11;1.80;;;1.70;;
15764;SDS011;7983;50.744;7.086;2022-08-02T06:59:39;3.00;;;1.83;;
15764;SDS011;7983;50.744;7.086;2022-08-02T07:02:05;2.75;;;1.80;;
15764;SDS011;7983;50.744;7.086;2022-08-02T07:04:32;3.72;;;1.77;;
15764;SDS011;7983;50.744;7.086;2022-08-02T07:06:59;3.33;;;1.90;;
15764;SDS011;7983;50.744;7.086;2022-08-02T07:09:25;2.95;;;1.83;;
15764;SDS011;7983;50.744;7.086;2022-08-02T07:11:51;2.38;;;1.80;;
15764;SDS011;7983;50.744;7.086;2022-08-02T07:14:17;2.35;;;1.95;;
15764;SDS011;7983;50.744;7.086;2022-08-02T07:16:42;2.05;;;1.40;;
15764;SDS011;7983;50.744;7.086;2022-08-02T07:19:08;2.90;;;1.85;;
15764;SDS011;7983;50.744;7.086;2022-08-02T07:21:36;2.15;;;1.45;;
15764;SDS011;7983;50.744;7.086;2022-08-02T07:24:02;3.55;;;1.80;;
15764;SDS011;7983;50.744;7.086;2022-08-02T07:26:27;2.28;;;1.77;;
15764;SDS011;7983;50.744;7.086;2022-08-02T07:28:56;2.05;;;1.63;;
15764;SDS011;7983;50.744;7.086;2022-08-02T07:31:23;13.05;;;1.70;;
15764;SDS011;7983;50.744;7.086;2022-08-02T07:33:51;1.65;;;1.40;;
15764;SDS011;7983;50.744;7.086;2022-08-02T07:36:17;1.60;;;1.35;;
15764;SDS011;7983;50.744;7.086;2022-08-02T07:38:45;1.95;;;1.75;;
15764;SDS011;7983;50.744;7.086;2022-08-02T07:41:13;2.03;;;1.38;;
15764;SDS011;7983;50.744;7.086;2022-08-02T07:43:39;2.80;;;1.45;;
15764;SDS011;7983;50.744;7.086;2022-08-02T07:46:05;2.25;;;1.50;;
15764;SDS011;7983;50.744;7.086;2022-08-02T07:48:30;1.75;;;1.55;;
15764;SDS011;7983;50.744;7.086;2022-08-02T07:50:56;2.35;;;1.77;;
15764;SDS011;7983;50.744;7.086;2022-08-02T07:53:22;3.33;;;1.83;;
15764;SDS011;7983;50.744;7.086;2022-08-02T07:55:47;2.55;;;1.70;;
15764;SDS011;7983;50.744;7.086;2022-08-02T07:58:13;1.98;;;1.60;;
15764;SDS011;7983;50.744;7.086;2022-08-02T08:00:43;2.03;;;1.50;;
15764;SDS011;7983;50.744;7.086;2022-08-02T08:03:09;3.70;;;1.60;;
15764;SDS011;7983;50.744;7.086;2022-08-02T08:05:34;2.33;;;1.55;;
15764;SDS011;7983;50.744;7.086;2022-08-02T08:08:00;2.28;;;1.50;;
15764;SDS011;7983;50.744;7.086;2022-08-02T08:10:32;1.40;;;1.30;;
15764;SDS011;7983;50.744;7.086;2022-08-02T08:12:58;2.42;;;1.30;;
15764;SDS011;7983;50.744;7.086;2022-08-02T08:15:23;1.85;;;1.27;;
15764;SDS011;7983;50.744;7.086;2022-08-02T08:17:49;1.35;;;1.13;;
15764;SDS011;7983;50.744;7.086;2022-08-02T08:20:15;1.85;;;1.50;;
15764;SDS011;7983;50.744;7.086;2022-08-02T08:22:45;1.45;;;1.30;;
15764;SDS011;7983;50.744;7.086;2022-08-02T08:25:11;2.97;;;1.42;;
15764;SDS011;7983;50.744;7.086;2022-08-02T08:27:37;2.00;;;1.52;;
15764;SDS011;7983;50.744;7.086;2022-08-02T08:30:11;4.43;;;1.45;;
15764;SDS011;7983;50.744;7.086;2022-08-02T08:32:39;2.85;;;1.50;;
15764;SDS011;7983;50.744;7.086;2022-08-02T08:35:05;2.10;;;1.38;;
15764;SDS011;7983;50.744;7.086;2022-08-02T08:37:37;1.42;;;1.33;;
15764;SDS011;7983;50.744;7.086;2022-08-02T08:40:06;1.88;;;1.40;;
15764;SDS011;7983;50.744;7.086;2022-08-02T08:42:33;2.05;;;1.50;;
15764;SDS011;7983;50.744;7.086;2022-08-02T08:45:03;2.17;;;1.60;;
15764;SDS011;7983;50.744;7.086;2022-08-02T08:47:37;1.40;;;1.10;;
15764;SDS011;7983;50.744;7.086;2022-08-02T08:52:35;3.22;;;1.33;;
15764;SDS011;7983;50.744;7.086;2022-08-02T08:55:11;1.73;;;1.30;;
15764;SDS011;7983;50.744;7.086;2022-08-02T08:57:40;2.67;;;1.30;;
15764;SDS011;7983;50.744;7.086;2022-08-02T09:00:11;2.10;;;1.50;;
15764;SDS011;7983;50.744;7.086;2022-08-02T09:02:39;2.70;;;1.35;;
15764;SDS011;7983;50.744;7.086;2022-08-02T09:05:10;2.17;;;1.50;;
15764;SDS011;7983;50.744;7.086;2022-08-02T09:07:38;2.10;;;1.40;;
15764;SDS011;7983;50.744;7.086;2022-08-02T09:15:42;2.33;;;1.27;;
15764;SDS011;7983;50.744;7.086;2022-08-02T09:18:09;3.25;;;1.40;;
15764;SDS011;7983;50.744;7.086;2022-08-02T09:20:57;1.30;;;1.20;;
15764;SDS011;7983;50.744;7.086;2022-08-02T09:23:23;1.90;;;1.40;;
15764;SDS011;7983;50.744;7.086;2022-08-02T09:26:01;1.50;;;1.20;;
15764;SDS011;7983;50.744;7.086;2022-08-02T09:28:28;1.80;;;1.30;;
15764;SDS011;7983;50.744;7.086;2022-08-02T09:30:56;2.38;;;1.20;;
15764;SDS011;7983;50.744;7.086;2022-08-02T09:33:33;1.73;;;1.20;;
15764;SDS011;7983;50.744;7.086;2022-08-02T09:38:26;1.23;;;1.05;;
15764;SDS011;7983;50.744;7.086;2022-08-02T09:40:52;1.75;;;1.20;;
15764;SDS011;7983;50.744;7.086;2022-08-02T09:43:23;0.80;;;0.80;;
15764;SDS011;7983;50.744;7.086;2022-08-02T09:46:13;1.42;;;1.33;;
15764;SDS011;7983;50.744;7.086;2022-08-02T09:48:55;2.05;;;1.15;;
15764;SDS011;7983;50.744;7.086;2022-08-02T09:51:30;1.52;;;1.20;;
15764;SDS011;7983;50.744;7.086;2022-08-02T09:54:05;2.55;;;1.30;;
15764;SDS011;7983;50.744;7.086;2022-08-02T09:56:40;1.77;;;1.20;;
15764;SDS011;7983;50.744;7.086;2022-08-02T09:59:09;1.10;;;0.93;;
15764;SDS011;7983;50.744;7.086;2022-08-02T10:01:36;1.67;;;1.20;;
15764;SDS011;7983;50.744;7.086;2022-08-02T10:04:03;1.75;;;1.00;;
15764;SDS011;7983;50.744;7.086;2022-08-02T10:06:31;1.52;;;1.10;;
15764;SDS011;7983;50.744;7.086;2022-08-02T10:08:57;1.10;;;1.00;;
15764;SDS011;7983;50.744;7.086;2022-08-02T10:11:24;1.25;;;1.00;;
15764;SDS011;7983;50.744;7.086;2022-08-02T10:13:54;1.10;;;1.00;;
15764;SDS011;7983;50.744;7.086;2022-08-02T10:16:23;1.45;;;1.30;;
15764;SDS011;7983;50.744;7.086;2022-08-02T10:18:50;1.55;;;1.05;;
15764;SDS011;7983;50.744;7.086;2022-08-02T10:21:28;1.25;;;1.10;;
15764;SDS011;7983;50.744;7.086;2022-08-02T10:24:20;1.52;;;1.20;;
15764;SDS011;7983;50.744;7.086;2022-08-02T10:26:46;1.30;;;1.20;;
15764;SDS011;7983;50.744;7.086;2022-08-02T10:29:14;1.55;;;1.05;;
15764;SDS011;7983;50.744;7.086;2022-08-02T10:32:08;1.20;;;1.00;;
15764;SDS011;7983;50.744;7.086;2022-08-02T10:37:11;1.88;;;0.90;;
15764;SDS011;7983;50.744;7.086;2022-08-02T10:39:39;1.13;;;1.00;;
15764;SDS011;7983;50.744;7.086;2022-08-02T10:42:08;1.20;;;1.10;;
15764;SDS011;7983;50.744;7.086;2022-08-02T10:44:37;1.15;;;1.05;;
15764;SDS011;7983;50.744;7.086;2022-08-02T10:52:20;1.55;;;1.00;;
15764;SDS011;7983;50.744;7.086;2022-08-02T10:54:50;1.52;;;1.10;;
15764;SDS011;7983;50.744;7.086;2022-08-02T11:02:32;1.30;;;1.10;;
15764;SDS011;7983;50.744;7.086;2022-08-02T11:05:11;2.13;;;1.10;;
15764;SDS011;7983;50.744;7.086;2022-08-02T11:08:01;1.35;;;1.17;;
15764;SDS011;7983;50.744;7.086;2022-08-02T11:10:42;1.80;;;1.25;;
15764;SDS011;7983;50.744;7.086;2022-08-02T11:13:14;1.27;;;1.10;;
15764;SDS011;7983;50.744;7.086;2022-08-02T11:19:11;1.17;;;1.00;;
15764;SDS011;7983;50.744;7.086;2022-08-02T11:21:30;1.10;;;0.90;;
15764;SDS011;7983;50.744;7.086;2022-08-02T11:26:51;1.30;;;1.10;;
15764;SDS011;7983;50.744;7.086;2022-08-02T11:29:19;1.75;;;1.10;;
15764;SDS011;7983;50.744;7.086;2022-08-02T11:31:46;1.02;;;0.93;;
15764;SDS011;7983;50.744;7.086;2022-08-02T11:34:11;1.75;;;1.08;;
15764;SDS011;7983;50.744;7.086;2022-08-02T11:36:44;1.00;;;0.90;;
15764;SDS011;7983;50.744;7.086;2022-08-02T11:39:15;1.23;;;0.90;;
15764;SDS011;7983;50.744;7.086;2022-08-02T11:41:51;0.85;;;0.80;;
15764;SDS011;7983;50.744;7.086;2022-08-02T11:44:21;1.30;;;1.10;;
15764;SDS011;7983;50.744;7.086;2022-08-02T11:46:58;1.38;;;1.00;;
15764;SDS011;7983;50.744;7.086;2022-08-02T11:49:25;1.42;;;1.05;;
15764;SDS011;7983;50.744;7.086;2022-08-02T11:51:59;1.40;;;1.10;;
15764;SDS011;7983;50.744;7.086;2022-08-02T11:54:33;1.15;;;0.80;;
15764;SDS011;7983;50.744;7.086;2022-08-02T11:59:54;1.85;;;1.02;;
15764;SDS011;7983;50.744;7.086;2022-08-02T12:02:29;1.20;;;1.00;;
15764;SDS011;7983;50.744;7.086;2022-08-02T12:05:05;1.10;;;1.00;;
15764;SDS011;7983;50.744;7.086;2022-08-02T12:07:39;1.10;;;0.80;;
15764;SDS011;7983;50.744;7.086;2022-08-02T12:10:06;1.77;;;0.90;;
15764;SDS011;7983;50.744;7.086;2022-08-02T12:12:46;1.00;;;0.80;;
15764;SDS011;7983;50.744;7.086;2022-08-02T12:15:36;1.50;;;1.08;;
15764;SDS011;7983;50.744;7.086;2022-08-02T12:18:16;1.52;;;0.98;;
15764;SDS011;7983;50.744;7.086;2022-08-02T12:21:01;1.00;;;0.80;;
15764;SDS011;7983;50.744;7.086;2022-08-02T12:23:28;0.80;;;0.80;;
15764;SDS011;7983;50.744;7.086;2022-08-02T12:26:00;1.05;;;0.95;;
15764;SDS011;7983;50.744;7.086;2022-08-02T12:28:35;1.38;;;0.88;;
15764;SDS011;7983;50.744;7.086;2022-08-02T12:31:09;0.82;;;0.82;;
15764;SDS011;7983;50.744;7.086;2022-08-02T12:33:45;1.27;;;0.82;;
15764;SDS011;7983;50.744;7.086;2022-08-02T12:38:51;1.02;;;0.90;;
15764;SDS011;7983;50.744;7.086;2022-08-02T12:41:18;0.85;;;0.82;;
15764;SDS011;7983;50.744;7.086;2022-08-02T12:43:44;1.73;;;0.85;;
15764;SDS011;7983;50.744;7.086;2022-08-02T12:46:19;1.02;;;0.80;;
15764;SDS011;7983;50.744;7.086;2022-08-02T12:48:46;1.00;;;0.90;;
15764;SDS011;7983;50.744;7.086;2022-08-02T12:51:21;1.20;;;1.05;;
15764;SDS011;7983;50.744;7.086;2022-08-02T12:53:52;1.35;;;1.10;;
15764;SDS011;7983;50.744;7.086;2022-08-02T12:56:28;1.00;;;0.90;;
15764;SDS011;7983;50.744;7.086;2022-08-02T12:58:57;1.33;;;1.10;;
15764;SDS011;7983;50.744;7.086;2022-08-02T13:01:24;1.10;;;1.00;;
15764;SDS011;7983;50.744;7.086;2022-08-02T13:03:52;1.90;;;0.93;;
15764;SDS011;7983;50.744;7.086;2022-08-02T13:06:20;1.23;;;1.10;;
15764;SDS011;7983;50.744;7.086;2022-08-02T13:08:47;2.22;;;1.20;;
15764;SDS011;7983;50.744;7.086;2022-08-02T13:11:18;1.10;;;1.00;;
15764;SDS011;7983;50.744;7.086;2022-08-02T13:13:45;1.15;;;0.82;;
15764;SDS011;7983;50.744;7.086;2022-08-02T13:16:10;1.20;;;0.95;;
15764;SDS011;7983;50.744;7.086;2022-08-02T13:18:36;1.30;;;1.00;;
15764;SDS011;7983;50.744;7.086;2022-08-02T13:21:03;1.30;;;1.05;;
15764;SDS011;7983;50.744;7.086;2022-08-02T13:23:34;1.45;;;1.00;;
15764;SDS011;7983;50.744;7.086;2022-08-02T13:26:00;1.38;;;1.10;;
15764;SDS011;7983;50.744;7.086;2022-08-02T13:28:29;1.13;;;1.02;;
15764;SDS011;7983;50.744;7.086;2022-08-02T13:30:54;1.30;;;1.00;;
15764;SDS011;7983;50.744;7.086;2022-08-02T13:33:20;0.90;;;0.80;;
15764;SDS011;7983;50.744;7.086;2022-08-02T13:35:46;2.00;;;1.00;;
15764;SDS011;7983;50.744;7.086;2022-08-02T13:38:15;2.78;;;1.17;;
15764;SDS011;7983;50.744;7.086;2022-08-02T13:40:41;1.83;;;0.70;;
15764;SDS011;7983;50.744;7.086;2022-08-02T13:43:28;1.30;;;0.98;;
15764;SDS011;7983;50.744;7.086;2022-08-02T13:45:55;1.13;;;0.90;;
15764;SDS011;7983;50.744;7.086;2022-08-02T13:48:24;1.88;;;0.90;;
15764;SDS011;7983;50.744;7.086;2022-08-02T13:50:49;3.72;;;1.10;;
15764;SDS011;7983;50.744;7.086;2022-08-02T13:53:17;1.02;;;0.93;;
15764;SDS011;7983;50.744;7.086;2022-08-02T13:55:45;1.00;;;0.88;;
15764;SDS011;7983;50.744;7.086;2022-08-02T13:58:13;1.70;;;1.00;;
15764;SDS011;7983;50.744;7.086;2022-08-02T14:00:38;1.50;;;0.73;;
15764;SDS011;7983;50.744;7.086;2022-08-02T14:03:04;1.02;;;0.93;;
15764;SDS011;7983;50.744;7.086;2022-08-02T14:05:32;1.80;;;1.27;;
15764;SDS011;7983;50.744;7.086;2022-08-02T14:08:03;5.30;;;1.08;;
15764;SDS011;7983;50.744;7.086;2022-08-02T14:10:29;1.10;;;0.85;;
15764;SDS011;7983;50.744;7.086;2022-08-02T14:12:55;0.90;;;0.90;;
15764;SDS011;7983;50.744;7.086;2022-08-02T14:15:20;0.90;;;0.80;;
15764;SDS011;7983;50.744;7.086;2022-08-02T14:17:46;1.15;;;1.02;;
15764;SDS011;7983;50.744;7.086;2022-08-02T14:20:12;1.20;;;0.90;;
15764;SDS011;7983;50.744;7.086;2022-08-02T14:22:41;1.58;;;0.90;;
15764;SDS011;7983;50.744;7.086;2022-08-02T14:25:06;1.17;;;0.90;;
15764;SDS011;7983;50.744;7.086;2022-08-02T14:27:35;1.33;;;0.90;;
15764;SDS011;7983;50.744;7.086;2022-08-02T14:30:03;1.67;;;0.80;;
15764;SDS011;7983;50.744;7.086;2022-08-02T14:32:29;1.75;;;0.80;;
15764;SDS011;7983;50.744;7.086;2022-08-02T14:34:57;1.83;;;1.35;;
15764;SDS011;7983;50.744;7.086;2022-08-02T14:37:23;1.08;;;0.80;;
15764;SDS011;7983;50.744;7.086;2022-08-02T14:39:48;1.45;;;1.00;;
15764;SDS011;7983;50.744;7.086;2022-08-02T14:42:16;2.70;;;1.05;;
15764;SDS011;7983;50.744;7.086;2022-08-02T14:44:42;1.60;;;0.80;;
15764;SDS011;7983;50.744;7.086;2022-08-02T14:47:10;1.10;;;1.00;;
15764;SDS011;7983;50.744;7.086;2022-08-02T14:49:38;1.02;;;0.90;;
15764;SDS011;7983;50.744;7.086;2022-08-02T14:52:06;1.15;;;0.80;;
15764;SDS011;7983;50.744;7.086;2022-08-02T14:54:32;0.98;;;0.88;;
15764;SDS011;7983;50.744;7.086;2022-08-02T14:57:01;1.20;;;0.80;;
15764;SDS011;7983;50.744;7.086;2022-08-02T14:59:27;1.35;;;0.90;;
15764;SDS011;7983;50.744;7.086;2022-08-02T15:01:53;1.48;;;0.90;;
15764;SDS011;7983;50.744;7.086;2022-08-02T15:04:19;2.25;;;1.00;;
15764;SDS011;7983;50.744;7.086;2022-08-02T15:06:45;1.20;;;0.90;;
15764;SDS011;7983;50.744;7.086;2022-08-02T15:09:14;0.82;;;0.82;;
15764;SDS011;7983;50.744;7.086;2022-08-02T15:11:39;1.02;;;0.85;;
15764;SDS011;7983;50.744;7.086;2022-08-02T15:14:10;1.10;;;0.90;;
15764;SDS011;7983;50.744;7.086;2022-08-02T15:16:38;1.42;;;0.95;;
15764;SDS011;7983;50.744;7.086;2022-08-02T15:19:05;1.45;;;1.10;;
15764;SDS011;7983;50.744;7.086;2022-08-02T15:21:31;2.97;;;0.90;;
15764;SDS011;7983;50.744;7.086;2022-08-02T15:23:57;1.20;;;1.10;;
15764;SDS011;7983;50.744;7.086;2022-08-02T15:26:23;1.42;;;0.90;;
15764;SDS011;7983;50.744;7.086;2022-08-02T15:28:49;1.15;;;1.00;;
15764;SDS011;7983;50.744;7.086;2022-08-02T15:31:15;1.02;;;0.90;;
15764;SDS011;7983;50.744;7.086;2022-08-02T15:33:43;1.10;;;0.90;;
15764;SDS011;7983;50.744;7.086;2022-08-02T15:36:11;1.23;;;1.13;;
15764;SDS011;7983;50.744;7.086;2022-08-02T15:38:37;1.13;;;1.02;;
15764;SDS011;7983;50.744;7.086;2022-08-02T15:41:03;1.38;;;0.80;;
15764;SDS011;7983;50.744;7.086;2022-08-02T15:43:31;0.82;;;0.75;;
15764;SDS011;7983;50.744;7.086;2022-08-02T15:46:00;1.10;;;1.00;;
15764;SDS011;7983;50.744;7.086;2022-08-02T15:48:28;1.27;;;1.02;;
15764;SDS011;7983;50.744;7.086;2022-08-02T15:50:53;1.40;;;1.00;;
15764;SDS011;7983;50.744;7.086;2022-08-02T15:53:20;0.90;;;0.80;;
15764;SDS011;7983;50.744;7.086;2022-08-02T15:55:45;1.00;;;0.90;;
15764;SDS011;7983;50.744;7.086;2022-08-02T15:58:12;0.80;;;0.80;;
15764;SDS011;7983;50.744;7.086;2022-08-02T16:00:38;1.50;;;1.10;;
15764;SDS011;7983;50.744;7.086;2022-08-02T16:03:06;1.98;;;0.90;;
15764;SDS011;7983;50.744;7.086;2022-08-02T16:05:31;1.27;;;0.95;;